Time;durP1;ratioP1;P1;durP2;ratioP2;P2;SDS_P1;SDS_P2;PMS_P1;PMS_P2;Temp;Humidity;BMP_temperature;BMP_pressure;BME280_temperature;BME280_humidity;BME280_pressure;Samples;Min_cycle;Max_cycle;Signal;HPM_P1;HPM_P2
2021/01/28 00:02:35;;;;;;;;;;;4.50;99.90;;;;;;5091681;28;19919;-74
2021/01/28 00:05:40;;;;;;;;;;;4.40;99.90;;;;;;5095760;28;19931;-73
2021/01/28 00:08:44;;;;;;;;;;;4.30;99.90;;;;;;5087639;28;19930;-73
2021/01/28 00:11:48;;;;;;;;;;;4.20;99.90;;;;;;5091588;28;19919;-74
2021/01/28 00:14:51;;;;;;;;;;;4.20;99.90;;;;;;5092389;28;19919;-74
2021/01/28 00:17:56;;;;;;;;;;;4.30;99.90;;;;;;5079745;28;20291;-74
2021/01/28 00:21:00;;;;;;;;;;;4.30;99.90;;;;;;5076568;28;19923;-73
2021/01/28 00:24:04;;;;;;;;;;;4.30;99.90;;;;;;5100296;28;19935;-72
2021/01/28 00:27:08;;;;;;;;;;;4.40;99.90;;;;;;5083636;28;19923;-73
2021/01/28 00:30:14;;;;;;;;;;;4.50;99.90;;;;;;5080653;28;19927;-73
2021/01/28 00:33:21;;;;;;;;;;;4.50;99.90;;;;;;5091237;28;19923;-74
2021/01/28 00:36:25;;;;;;;;;;;4.50;99.90;;;;;;5092328;28;19927;-73
2021/01/28 00:39:29;;;;;;;;;;;4.50;99.90;;;;;;5090828;28;19923;-73
2021/01/28 00:42:33;;;;;;;;;;;4.50;99.90;;;;;;5091733;28;20418;-73
2021/01/28 00:45:37;;;;;;;;;;;4.40;99.90;;;;;;5091134;28;19990;-73
2021/01/28 00:48:42;;;;;;;;;;;4.30;99.90;;;;;;5082168;28;20397;-73
2021/01/28 00:51:47;;;;;;;;;;;4.30;99.90;;;;;;5112238;27;19920;-73
2021/01/28 00:54:50;;;;;;;;;;;4.20;99.90;;;;;;5090951;28;19923;-74
2021/01/28 00:57:57;;;;;;;;;;;4.30;99.90;;;;;;5091910;28;19923;-74
2021/01/28 01:01:04;;;;;;;;;;;4.20;99.90;;;;;;5091004;28;19923;-73
2021/01/28 01:04:08;;;;;;;;;;;4.10;99.90;;;;;;5086389;28;19924;-74
2021/01/28 01:07:12;;;;;;;;;;;4.00;99.90;;;;;;5110981;27;19939;-74
2021/01/28 01:10:30;;;;;;;;;;;4.00;99.90;;;;;;5090686;28;19925;-73
2021/01/28 01:13:36;;;;;;;;;;;4.00;99.90;;;;;;5113938;27;20275;-73
2021/01/28 01:16:47;;;;;;;;;;;4.00;99.90;;;;;;5091483;28;20017;-74
2021/01/28 01:19:57;;;;;;;;;;;4.00;99.90;;;;;;5083074;28;19919;-73
2021/01/28 01:23:16;;;;;;;;;;;4.00;99.90;;;;;;5090790;28;19920;-74
2021/01/28 01:26:38;;;;;;;;;;;4.00;99.90;;;;;;5082974;28;19923;-73
2021/01/28 01:29:42;;;;;;;;;;;4.00;99.90;;;;;;5089811;28;19927;-73
2021/01/28 01:32:57;;;;;;;;;;;4.00;99.90;;;;;;5088681;28;19938;-73
2021/01/28 01:36:21;;;;;;;;;;;4.00;99.90;;;;;;5092111;28;20377;-74
2021/01/28 01:39:31;;;;;;;;;;;4.00;99.90;;;;;;5090151;28;19936;-74
2021/01/28 01:42:35;;;;;;;;;;;4.00;99.90;;;;;;5114286;27;19955;-73
2021/01/28 01:45:44;;;;;;;;;;;4.00;99.90;;;;;;5089637;28;19923;-73
2021/01/28 01:48:52;;;;;;;;;;;4.00;99.90;;;;;;5089898;28;19938;-72
2021/01/28 01:52:01;;;;;;;;;;;4.00;99.90;;;;;;5072622;28;19919;-72
2021/01/28 01:55:15;;;;;;;;;;;4.00;99.90;;;;;;5086869;28;19919;-73
2021/01/28 01:58:47;;;;;;;;;;;3.90;99.90;;;;;;5089116;28;19927;-73
2021/01/28 02:02:23;;;;;;;;;;;3.90;99.90;;;;;;5078114;28;19939;-71
2021/01/28 02:05:49;;;;;;;;;;;3.90;99.90;;;;;;5078901;28;20385;-74
2021/01/28 02:09:12;;;;;;;;;;;4.00;99.90;;;;;;5079315;28;20402;-73
2021/01/28 02:12:33;;;;;;;;;;;4.00;99.90;;;;;;5089851;28;19923;-73
2021/01/28 02:15:57;;;;;;;;;;;4.00;99.90;;;;;;5081480;28;19920;-74
2021/01/28 02:19:03;;;;;;;;;;;3.90;99.90;;;;;;5113758;27;19919;-73
2021/01/28 02:22:08;;;;;;;;;;;3.90;99.90;;;;;;5081564;28;19919;-74
2021/01/28 02:25:31;;;;;;;;;;;3.80;99.90;;;;;;5083609;28;19936;-73
2021/01/28 02:28:35;;;;;;;;;;;3.80;99.90;;;;;;5112313;27;19923;-73
2021/01/28 02:31:43;;;;;;;;;;;3.80;99.90;;;;;;5113211;27;19919;-72
2021/01/28 02:34:47;;;;;;;;;;;3.70;99.90;;;;;;5088454;28;19919;-74
2021/01/28 02:37:55;;;;;;;;;;;3.50;99.90;;;;;;5089195;28;19931;-73
2021/01/28 02:41:07;;;;;;;;;;;3.50;99.90;;;;;;5089383;28;19943;-73
2021/01/28 02:44:29;;;;;;;;;;;3.50;99.90;;;;;;5089451;28;19924;-73
2021/01/28 02:47:55;;;;;;;;;;;3.50;99.90;;;;;;5088956;28;20414;-73
2021/01/28 02:51:21;;;;;;;;;;;3.60;99.90;;;;;;5088086;28;19943;-73
2021/01/28 02:54:25;;;;;;;;;;;3.60;99.90;;;;;;5113368;28;19920;-73
2021/01/28 02:57:30;;;;;;;;;;;3.60;99.90;;;;;;5090822;28;19923;-73
2021/01/28 03:00:38;;;;;;;;;;;3.50;99.90;;;;;;5088811;28;20385;-73
2021/01/28 03:03:42;;;;;;;;;;;3.50;99.90;;;;;;5077928;28;19923;-73
2021/01/28 03:06:47;;;;;;;;;;;3.50;99.90;;;;;;5090460;28;19923;-73
2021/01/28 03:09:51;;;;;;;;;;;3.40;99.90;;;;;;5087730;28;19928;-73
2021/01/28 03:13:01;;;;;;;;;;;3.40;99.90;;;;;;5088770;28;19927;-74
2021/01/28 03:16:27;;;;;;;;;;;3.50;99.90;;;;;;5085090;28;19919;-73
2021/01/28 03:19:51;;;;;;;;;;;3.60;99.90;;;;;;5082217;28;20575;-73
2021/01/28 03:22:57;;;;;;;;;;;3.60;99.90;;;;;;5088232;28;19919;-74
2021/01/28 03:26:23;;;;;;;;;;;3.70;99.90;;;;;;5112755;28;19935;-74
2021/01/28 03:29:27;;;;;;;;;;;3.80;99.90;;;;;;5113134;28;19923;-73
2021/01/28 03:32:31;;;;;;;;;;;3.90;99.90;;;;;;5089661;28;19923;-74
2021/01/28 03:35:35;;;;;;;;;;;3.90;99.90;;;;;;5079161;28;19924;-74
2021/01/28 03:38:43;;;;;;;;;;;3.80;99.90;;;;;;5081293;28;20695;-73
2021/01/28 03:41:48;;;;;;;;;;;3.80;99.90;;;;;;5088020;28;19923;-74
2021/01/28 03:44:52;;;;;;;;;;;3.80;99.90;;;;;;5087712;28;19924;-73
2021/01/28 03:47:57;;;;;;;;;;;3.80;99.90;;;;;;5089125;28;19923;-74
2021/01/28 03:51:20;;;;;;;;;;;3.80;99.90;;;;;;5086922;28;19927;-73
2021/01/28 03:54:42;;;;;;;;;;;3.90;99.90;;;;;;5088818;28;20291;-74
2021/01/28 03:57:54;;;;;;;;;;;4.00;99.90;;;;;;5088350;28;19919;-72
2021/01/28 04:00:58;;;;;;;;;;;3.70;99.90;;;;;;5081282;28;19943;-74
2021/01/28 04:04:11;;;;;;;;;;;3.60;99.90;;;;;;5088209;28;19920;-74
2021/01/28 04:07:38;;;;;;;;;;;3.50;99.90;;;;;;5089415;28;19923;-74
2021/01/28 04:10:42;;;;;;;;;;;3.40;99.90;;;;;;5105937;27;19927;-74
2021/01/28 04:13:49;;;;;;;;;;;3.40;99.90;;;;;;5091983;28;19919;-74
2021/01/28 04:17:17;;;;;;;;;;;3.50;99.90;;;;;;5083274;28;20692;-74
2021/01/28 04:20:29;;;;;;;;;;;3.60;99.90;;;;;;5090763;28;19919;-73
2021/01/28 04:23:51;;;;;;;;;;;3.70;99.90;;;;;;5091176;28;19919;-72
2021/01/28 04:27:27;;;;;;;;;;;3.90;99.90;;;;;;5086040;28;19923;-74
2021/01/28 04:30:45;;;;;;;;;;;3.90;99.90;;;;;;5082551;28;19924;-72
2021/01/28 04:33:55;;;;;;;;;;;3.90;99.90;;;;;;5102201;28;20381;-74
2021/01/28 04:37:02;;;;;;;;;;;4.00;99.90;;;;;;5113754;27;19919;-72
2021/01/28 04:40:30;;;;;;;;;;;4.10;99.90;;;;;;5089562;28;19935;-74
2021/01/28 04:43:34;;;;;;;;;;;4.10;99.90;;;;;;5114302;27;19924;-74
2021/01/28 04:46:57;;;;;;;;;;;4.20;99.90;;;;;;5081545;28;20385;-74
2021/01/28 04:50:24;;;;;;;;;;;4.10;99.90;;;;;;5080059;28;19923;-73
2021/01/28 04:53:46;;;;;;;;;;;3.90;99.90;;;;;;5090326;28;20279;-74
2021/01/28 04:57:03;;;;;;;;;;;3.90;99.90;;;;;;5082189;28;19919;-73
2021/01/28 05:00:12;;;;;;;;;;;3.70;99.90;;;;;;5077694;28;19939;-74
2021/01/28 05:03:31;;;;;;;;;;;3.50;99.90;;;;;;5092060;28;19939;-72
2021/01/28 05:07:01;;;;;;;;;;;3.60;99.90;;;;;;5083707;28;19935;-73
2021/01/28 05:10:36;;;;;;;;;;;3.40;99.90;;;;;;5083738;28;19923;-74
2021/01/28 05:14:20;;;;;;;;;;;2.80;99.90;;;;;;5079327;28;19927;-72
2021/01/28 05:17:30;;;;;;;;;;;2.90;99.90;;;;;;5088238;28;19923;-74
2021/01/28 05:20:38;;;;;;;;;;;2.90;99.90;;;;;;5084662;28;19919;-73
2021/01/28 05:24:02;;;;;;;;;;;3.00;99.90;;;;;;5086645;28;20393;-74
2021/01/28 05:27:33;;;;;;;;;;;3.10;99.90;;;;;;5081273;28;19935;-73
2021/01/28 05:30:41;;;;;;;;;;;2.90;99.90;;;;;;5082039;28;19923;-74
2021/01/28 05:33:46;;;;;;;;;;;2.80;99.90;;;;;;5091259;28;19938;-72
2021/01/28 05:37:23;;;;;;;;;;;2.70;99.90;;;;;;5090960;28;19994;-73
2021/01/28 05:40:53;;;;;;;;;;;2.70;99.90;;;;;;5085181;28;19923;-73
2021/01/28 05:44:11;;;;;;;;;;;2.70;99.90;;;;;;5083922;28;20006;-74
2021/01/28 05:47:30;;;;;;;;;;;2.70;99.90;;;;;;5088701;28;19919;-73
2021/01/28 05:51:02;;;;;;;;;;;2.80;99.90;;;;;;5087499;28;19927;-72
2021/01/28 05:54:08;;;;;;;;;;;2.70;99.90;;;;;;5111424;27;19919;-74
2021/01/28 05:57:29;;;;;;;;;;;2.80;99.90;;;;;;5085451;28;19923;-72
2021/01/28 06:00:37;;;;;;;;;;;2.80;99.90;;;;;;5102219;27;19935;-72
2021/01/28 06:03:45;;;;;;;;;;;2.80;99.90;;;;;;5102864;27;20571;-74
2021/01/28 06:07:13;;;;;;;;;;;2.70;99.90;;;;;;5086712;28;19927;-72
2021/01/28 06:10:58;;;;;;;;;;;2.70;99.90;;;;;;5088817;28;19923;-73
2021/01/28 06:14:32;;;;;;;;;;;2.90;99.90;;;;;;5084926;28;20270;-73
2021/01/28 06:18:00;;;;;;;;;;;3.00;99.90;;;;;;5093530;28;19919;-73
2021/01/28 06:21:39;;;;;;;;;;;3.00;99.90;;;;;;5076294;28;19923;-73
2021/01/28 06:25:09;;;;;;;;;;;3.00;99.90;;;;;;5079613;28;19923;-73
2021/01/28 06:28:23;;;;;;;;;;;3.20;99.90;;;;;;5084853;28;19920;-73
2021/01/28 06:31:48;;;;;;;;;;;3.20;99.90;;;;;;5093798;28;19950;-74
2021/01/28 06:35:11;;;;;;;;;;;3.30;99.90;;;;;;5080127;28;19923;-73
2021/01/28 06:39:02;;;;;;;;;;;3.50;99.90;;;;;;5072173;28;19963;-73
2021/01/28 06:42:50;;;;;;;;;;;3.30;99.90;;;;;;5073331;28;20712;-72
2021/01/28 06:46:37;;;;;;;;;;;3.10;99.90;;;;;;5079061;28;20624;-74
2021/01/28 06:49:59;;;;;;;;;;;2.90;99.90;;;;;;5085594;28;19938;-74
2021/01/28 06:53:12;;;;;;;;;;;2.80;99.90;;;;;;5110801;27;20410;-73
2021/01/28 06:56:40;;;;;;;;;;;2.80;99.90;;;;;;5075668;28;19924;-72
2021/01/28 07:00:26;;;;;;;;;;;2.90;99.90;;;;;;5077158;28;20282;-73
2021/01/28 07:03:39;;;;;;;;;;;3.00;99.90;;;;;;5088268;28;19927;-74
2021/01/28 07:07:22;;;;;;;;;;;3.10;99.90;;;;;;5089575;28;19919;-73
2021/01/28 07:10:58;;;;;;;;;;;3.20;99.90;;;;;;5087337;28;19931;-73
2021/01/28 07:14:38;;;;;;;;;;;2.90;99.90;;;;;;5088969;28;20448;-73
2021/01/28 07:17:52;;;;;;;;;;;2.90;99.90;;;;;;5118437;27;19919;-74
2021/01/28 07:20:59;;;;;;;;;;;2.90;99.90;;;;;;5088243;28;19920;-73
2021/01/28 07:24:23;;;;;;;;;;;2.90;99.90;;;;;;5110551;28;19919;-74
2021/01/28 07:27:46;;;;;;;;;;;3.00;99.90;;;;;;5087145;28;20480;-73
2021/01/28 07:30:53;;;;;;;;;;;3.10;99.90;;;;;;5087940;28;19923;-73
2021/01/28 07:34:06;;;;;;;;;;;3.10;99.90;;;;;;5084427;28;19935;-74
2021/01/28 07:37:29;;;;;;;;;;;2.90;99.90;;;;;;5084189;28;19919;-73
2021/01/28 07:41:10;;;;;;;;;;;2.80;99.90;;;;;;5087206;28;20609;-73
2021/01/28 07:44:32;;;;;;;;;;;2.80;99.90;;;;;;5090765;28;19927;-74
2021/01/28 07:47:43;;;;;;;;;;;2.80;99.90;;;;;;5111857;27;19919;-74
2021/01/28 07:51:10;;;;;;;;;;;2.90;99.90;;;;;;5090030;28;19927;-74
2021/01/28 07:54:23;;;;;;;;;;;3.00;99.90;;;;;;5101290;28;19919;-74
2021/01/28 07:57:27;;;;;;;;;;;3.00;99.90;;;;;;5094644;28;19923;-73
2021/01/28 08:00:37;;;;;;;;;;;3.10;99.90;;;;;;5092927;28;19923;-74
2021/01/28 08:03:56;;;;;;;;;;;3.20;99.90;;;;;;5084103;28;20382;-74
2021/01/28 08:07:04;;;;;;;;;;;3.10;99.90;;;;;;5097520;28;19935;-74
2021/01/28 08:10:23;;;;;;;;;;;3.00;99.90;;;;;;5091286;28;20005;-74
2021/01/28 08:13:28;;;;;;;;;;;3.10;99.90;;;;;;5097818;28;19923;-73
2021/01/28 08:16:32;;;;;;;;;;;3.00;99.90;;;;;;5101111;28;19927;-74
2021/01/28 08:19:36;;;;;;;;;;;2.90;99.90;;;;;;5094068;28;19923;-74
2021/01/28 08:22:52;;;;;;;;;;;3.10;99.90;;;;;;5090964;28;19919;-73
2021/01/28 08:25:58;;;;;;;;;;;3.20;99.90;;;;;;5083393;28;19919;-73
2021/01/28 08:29:12;;;;;;;;;;;3.10;99.90;;;;;;5094671;28;19923;-73
2021/01/28 08:32:19;;;;;;;;;;;2.90;99.90;;;;;;5091334;28;19923;-74
2021/01/28 08:35:27;;;;;;;;;;;3.00;99.90;;;;;;5094737;28;19935;-74
2021/01/28 08:38:33;;;;;;;;;;;3.00;99.90;;;;;;5098090;28;20034;-74
2021/01/28 08:41:38;;;;;;;;;;;2.90;99.90;;;;;;5089094;28;19923;-73
2021/01/28 08:44:43;;;;;;;;;;;2.90;99.90;;;;;;5089397;28;20402;-73
2021/01/28 08:48:02;;;;;;;;;;;2.90;99.90;;;;;;5091600;28;19922;-74
2021/01/28 08:51:09;;;;;;;;;;;3.00;99.90;;;;;;5089695;28;19924;-74
2021/01/28 08:54:13;;;;;;;;;;;3.10;99.90;;;;;;5106766;27;19923;-74
2021/01/28 08:57:19;;;;;;;;;;;3.20;99.90;;;;;;5090991;28;19919;-74
2021/01/28 09:00:24;;;;;;;;;;;3.00;99.90;;;;;;5092052;28;19919;-74
2021/01/28 09:03:31;;;;;;;;;;;3.10;99.90;;;;;;5090231;28;19930;-74
2021/01/28 09:06:42;;;;;;;;;;;3.20;99.90;;;;;;5090931;28;19931;-74
2021/01/28 09:09:59;;;;;;;;;;;3.40;99.90;;;;;;5090289;28;19923;-74
2021/01/28 09:13:11;;;;;;;;;;;3.50;99.90;;;;;;5090124;28;19923;-73
2021/01/28 09:16:17;;;;;;;;;;;3.60;99.90;;;;;;5084420;28;19920;-74
2021/01/28 09:19:22;;;;;;;;;;;3.70;99.90;;;;;;5081317;28;20472;-73
2021/01/28 09:22:36;;;;;;;;;;;3.80;99.90;;;;;;5094257;28;19923;-74
2021/01/28 09:25:41;;;;;;;;;;;3.90;99.90;;;;;;5096524;28;20511;-73
2021/01/28 09:28:48;;;;;;;;;;;3.90;99.90;;;;;;5090602;28;19919;-73
2021/01/28 09:31:52;;;;;;;;;;;4.00;99.90;;;;;;5090845;28;19927;-73
2021/01/28 09:35:04;;;;;;;;;;;4.00;99.90;;;;;;5090141;28;19919;-74
2021/01/28 09:38:19;;;;;;;;;;;3.90;99.90;;;;;;5087837;28;19923;-73
2021/01/28 09:41:26;;;;;;;;;;;4.00;99.90;;;;;;5084666;28;19919;-72
2021/01/28 09:44:36;;;;;;;;;;;3.90;99.90;;;;;;5091155;28;19927;-72
2021/01/28 09:47:48;;;;;;;;;;;3.90;99.90;;;;;;5089017;28;19990;-74
2021/01/28 09:50:52;;;;;;;;;;;3.70;99.90;;;;;;5085855;28;19927;-74
2021/01/28 09:53:57;;;;;;;;;;;3.70;99.90;;;;;;5091555;28;19920;-74
2021/01/28 09:57:01;;;;;;;;;;;3.60;99.90;;;;;;5086065;28;19919;-74
2021/01/28 10:00:07;;;;;;;;;;;3.80;99.90;;;;;;5088509;28;19919;-74
2021/01/28 10:03:17;;;;;;;;;;;3.90;99.90;;;;;;5090864;28;19919;-72
2021/01/28 10:06:21;;;;;;;;;;;3.80;99.90;;;;;;5088655;28;19923;-74
2021/01/28 10:09:26;;;;;;;;;;;3.90;99.90;;;;;;5089188;28;19943;-74
2021/01/28 10:12:30;;;;;;;;;;;3.90;99.90;;;;;;5090637;28;19927;-74
2021/01/28 10:15:35;;;;;;;;;;;4.00;99.90;;;;;;5085861;28;20283;-74
2021/01/28 10:18:40;;;;;;;;;;;4.10;99.90;;;;;;5080278;28;19924;-73
2021/01/28 10:21:45;;;;;;;;;;;4.30;99.90;;;;;;5089780;28;19931;-73
2021/01/28 10:24:50;;;;;;;;;;;4.30;99.90;;;;;;5080796;28;20511;-73
2021/01/28 10:27:54;;;;;;;;;;;4.40;99.90;;;;;;5078755;28;19919;-74
2021/01/28 10:30:59;;;;;;;;;;;4.40;99.90;;;;;;5091089;28;19927;-74
2021/01/28 10:34:03;;;;;;;;;;;4.30;99.90;;;;;;5090039;28;19919;-73
2021/01/28 10:37:08;;;;;;;;;;;4.00;99.90;;;;;;5089173;28;19919;-73
2021/01/28 10:40:13;;;;;;;;;;;4.10;99.90;;;;;;5089463;28;20293;-73
2021/01/28 10:43:18;;;;;;;;;;;4.30;99.90;;;;;;5090313;28;20286;-73
2021/01/28 10:46:22;;;;;;;;;;;4.40;99.90;;;;;;5088239;28;19931;-74
2021/01/28 10:49:33;;;;;;;;;;;4.10;99.90;;;;;;5089706;28;20420;-73
2021/01/28 10:52:37;;;;;;;;;;;4.20;99.90;;;;;;5087656;28;19935;-73
2021/01/28 10:55:41;;;;;;;;;;;4.50;99.90;;;;;;5089483;28;19916;-74
2021/01/28 10:58:46;;;;;;;;;;;4.70;99.90;;;;;;5089268;28;19927;-73
2021/01/28 11:01:51;;;;;;;;;;;4.80;99.90;;;;;;5089719;28;20546;-74
2021/01/28 11:04:55;;;;;;;;;;;4.60;99.90;;;;;;5088937;28;20405;-74
2021/01/28 11:08:01;;;;;;;;;;;4.50;99.90;;;;;;5089079;28;19923;-73
2021/01/28 11:11:26;;;;;;;;;;;4.40;99.90;;;;;;5086175;28;19927;-74
2021/01/28 11:14:49;;;;;;;;;;;4.40;99.90;;;;;;5089200;28;19926;-74
2021/01/28 11:17:53;;;;;;;;;;;4.40;99.90;;;;;;5090064;28;20358;-74
2021/01/28 11:20:59;;;;;;;;;;;4.80;99.90;;;;;;5081596;28;19923;-73
2021/01/28 11:24:03;;;;;;;;;;;5.00;99.90;;;;;;5094313;28;19935;-73
2021/01/28 11:27:09;;;;;;;;;;;5.20;99.90;;;;;;5093106;28;19927;-74
2021/01/28 11:30:15;;;;;;;;;;;5.20;99.90;;;;;;5091189;28;19990;-73
2021/01/28 11:33:18;;;;;;;;;;;5.30;99.90;;;;;;5088176;28;19927;-73
2021/01/28 11:36:24;;;;;;;;;;;4.80;99.90;;;;;;5090561;28;19919;-74
2021/01/28 11:39:29;;;;;;;;;;;4.60;99.90;;;;;;5094511;28;19935;-74
2021/01/28 11:42:33;;;;;;;;;;;4.80;99.90;;;;;;5086309;28;19939;-74
2021/01/28 11:45:39;;;;;;;;;;;5.00;99.90;;;;;;5092146;28;19922;-74
2021/01/28 11:48:43;;;;;;;;;;;5.10;99.90;;;;;;5091810;28;19919;-73
2021/01/28 11:51:47;;;;;;;;;;;5.20;99.90;;;;;;5091950;28;20270;-74
2021/01/28 11:54:53;;;;;;;;;;;5.20;99.90;;;;;;5092847;28;20052;-74
2021/01/28 11:57:57;;;;;;;;;;;5.30;99.90;;;;;;5093509;28;19919;-74
2021/01/28 12:01:01;;;;;;;;;;;5.10;99.90;;;;;;5090030;28;19919;-73
2021/01/28 12:04:05;;;;;;;;;;;5.10;99.90;;;;;;5092724;28;20381;-74
2021/01/28 12:07:09;;;;;;;;;;;5.00;99.90;;;;;;5092320;28;19918;-73
2021/01/28 12:10:16;;;;;;;;;;;5.30;99.90;;;;;;5091974;28;19923;-73
2021/01/28 12:13:20;;;;;;;;;;;5.50;99.90;;;;;;5102541;28;19946;-74
2021/01/28 12:16:25;;;;;;;;;;;5.60;99.90;;;;;;5089455;28;19947;-74
2021/01/28 12:19:29;;;;;;;;;;;5.80;99.90;;;;;;5088095;28;20267;-74
2021/01/28 12:22:35;;;;;;;;;;;5.90;99.90;;;;;;5092921;28;19923;-73
2021/01/28 12:25:39;;;;;;;;;;;5.90;99.90;;;;;;5093656;28;20325;-73
2021/01/28 12:28:43;;;;;;;;;;;6.00;99.90;;;;;;5088389;28;19918;-74
2021/01/28 12:31:47;;;;;;;;;;;5.80;99.90;;;;;;5089138;28;19923;-74
2021/01/28 12:34:51;;;;;;;;;;;5.90;99.90;;;;;;5089107;28;19923;-73
2021/01/28 12:37:55;;;;;;;;;;;6.00;99.90;;;;;;5088183;28;20295;-73
2021/01/28 12:41:00;;;;;;;;;;;6.20;99.90;;;;;;5090440;28;19920;-73
2021/01/28 12:44:04;;;;;;;;;;;6.10;99.90;;;;;;5092439;28;19923;-74
2021/01/28 12:47:08;;;;;;;;;;;6.10;99.90;;;;;;5095390;28;20397;-72
2021/01/28 12:50:13;;;;;;;;;;;6.10;99.90;;;;;;5102822;28;20267;-73
2021/01/28 12:53:17;;;;;;;;;;;6.10;99.90;;;;;;5105206;28;19939;-73
2021/01/28 12:56:22;;;;;;;;;;;6.10;99.90;;;;;;5096903;28;19923;-73
2021/01/28 12:59:26;;;;;;;;;;;6.00;99.90;;;;;;5095046;28;19923;-73
2021/01/28 13:02:30;;;;;;;;;;;6.10;99.90;;;;;;5096801;28;19960;-73
2021/01/28 13:05:34;;;;;;;;;;;6.30;99.90;;;;;;5098976;28;19919;-73
2021/01/28 13:08:42;;;;;;;;;;;6.50;99.90;;;;;;5089015;28;19927;-74
2021/01/28 13:11:46;;;;;;;;;;;6.60;99.90;;;;;;5093247;28;20394;-74
2021/01/28 13:14:52;;;;;;;;;;;6.70;99.90;;;;;;5097544;28;19927;-74
2021/01/28 13:17:57;;;;;;;;;;;6.70;99.90;;;;;;5095528;28;19923;-73
2021/01/28 13:21:01;;;;;;;;;;;6.80;99.90;;;;;;5096251;28;19923;-73
2021/01/28 13:24:06;;;;;;;;;;;6.80;99.90;;;;;;5100638;28;19927;-73
2021/01/28 13:27:14;;;;;;;;;;;6.80;99.90;;;;;;5089213;28;19924;-74
2021/01/28 13:30:21;;;;;;;;;;;6.70;99.90;;;;;;5090860;28;20302;-74
2021/01/28 13:33:26;;;;;;;;;;;6.50;99.90;;;;;;5094269;28;19923;-73
2021/01/28 13:36:30;;;;;;;;;;;6.40;99.90;;;;;;5089925;28;19919;-73
2021/01/28 13:39:34;;;;;;;;;;;6.50;99.90;;;;;;5082675;28;20283;-73
2021/01/28 13:42:38;;;;;;;;;;;6.40;99.90;;;;;;5091321;28;19923;-73
2021/01/28 13:45:43;;;;;;;;;;;6.50;99.90;;;;;;5095609;28;19955;-72
2021/01/28 13:48:48;;;;;;;;;;;6.60;99.90;;;;;;5098771;28;19947;-73
2021/01/28 13:51:52;;;;;;;;;;;6.70;99.90;;;;;;5091057;28;19923;-73
2021/01/28 13:54:56;;;;;;;;;;;6.70;99.90;;;;;;5090949;28;19923;-73
2021/01/28 13:58:00;;;;;;;;;;;6.60;99.90;;;;;;5091283;28;19924;-73
2021/01/28 14:01:04;;;;;;;;;;;6.60;99.90;;;;;;5097723;28;19919;-73
2021/01/28 14:04:13;;;;;;;;;;;6.60;99.90;;;;;;5100716;28;19919;-73
2021/01/28 14:07:17;;;;;;;;;;;6.70;99.90;;;;;;5094385;28;19923;-73
2021/01/28 14:10:25;;;;;;;;;;;6.70;99.90;;;;;;5090150;28;19927;-73
2021/01/28 14:13:33;;;;;;;;;;;6.80;99.90;;;;;;5083814;28;19920;-73
2021/01/28 14:16:37;;;;;;;;;;;6.90;99.90;;;;;;5096673;28;19923;-73
2021/01/28 14:19:41;;;;;;;;;;;7.00;99.90;;;;;;5097727;28;20275;-73
2021/01/28 14:22:46;;;;;;;;;;;7.10;99.90;;;;;;5096897;28;19922;-73
2021/01/28 14:25:50;;;;;;;;;;;7.40;99.90;;;;;;5093035;28;19919;-74
2021/01/28 14:28:54;;;;;;;;;;;7.50;99.90;;;;;;5089492;28;19923;-73
2021/01/28 14:31:58;;;;;;;;;;;7.70;99.90;;;;;;5090263;28;20043;-73
2021/01/28 14:35:04;;;;;;;;;;;7.80;99.90;;;;;;5089132;28;19933;-73
2021/01/28 14:38:08;;;;;;;;;;;7.90;99.90;;;;;;5092697;28;19919;-73
2021/01/28 14:41:12;;;;;;;;;;;8.10;99.90;;;;;;5088184;28;19918;-73
2021/01/28 14:44:16;;;;;;;;;;;8.30;99.90;;;;;;5086603;28;20287;-73
2021/01/28 14:47:21;;;;;;;;;;;8.30;99.90;;;;;;5087241;28;19920;-73
2021/01/28 14:50:25;;;;;;;;;;;8.30;99.90;;;;;;5089151;28;19927;-73
2021/01/28 14:53:30;;;;;;;;;;;8.30;99.90;;;;;;5089557;28;19927;-73
2021/01/28 14:56:34;;;;;;;;;;;8.30;99.90;;;;;;5092508;28;19920;-74
2021/01/28 14:59:38;;;;;;;;;;;8.10;99.90;;;;;;5087290;28;19919;-73
2021/01/28 15:02:42;;;;;;;;;;;8.10;99.90;;;;;;5090058;28;19923;-73
2021/01/28 15:05:46;;;;;;;;;;;8.20;99.90;;;;;;5089032;28;20370;-73
2021/01/28 15:08:50;;;;;;;;;;;8.30;99.90;;;;;;5105406;28;20345;-73
2021/01/28 15:11:54;;;;;;;;;;;8.40;99.90;;;;;;5089775;28;19931;-72
2021/01/28 15:14:58;;;;;;;;;;;8.60;99.90;;;;;;5088751;28;19928;-72
2021/01/28 15:18:02;;;;;;;;;;;8.60;99.90;;;;;;5090289;28;20393;-72
2021/01/28 15:21:06;;;;;;;;;;;8.70;99.90;;;;;;5088977;28;19939;-72
2021/01/28 15:24:10;;;;;;;;;;;8.70;99.90;;;;;;5089569;28;19923;-72
2021/01/28 15:27:15;;;;;;;;;;;8.70;99.90;;;;;;5090391;28;19919;-71
2021/01/28 15:30:19;;;;;;;;;;;8.70;99.90;;;;;;5089868;28;19947;-73
2021/01/28 15:33:23;;;;;;;;;;;8.70;99.90;;;;;;5088856;28;19919;-73
2021/01/28 15:36:27;;;;;;;;;;;8.70;99.90;;;;;;5079391;28;19915;-74
2021/01/28 15:39:31;;;;;;;;;;;8.50;99.90;;;;;;5077511;28;19939;-73
2021/01/28 15:42:35;;;;;;;;;;;8.40;99.90;;;;;;5089664;28;20397;-73
2021/01/28 15:45:39;;;;;;;;;;;8.40;99.90;;;;;;5089344;28;20306;-73
2021/01/28 15:48:43;;;;;;;;;;;8.20;99.90;;;;;;5090263;28;19939;-72
2021/01/28 15:52:00;;;;;;;;;;;8.20;99.90;;;;;;5088682;28;19955;-73
2021/01/28 15:55:04;;;;;;;;;;;8.20;99.90;;;;;;5089215;28;19918;-73
2021/01/28 15:58:09;;;;;;;;;;;8.00;99.90;;;;;;5076612;28;19942;-71
2021/01/28 16:01:13;;;;;;;;;;;8.10;99.90;;;;;;5089422;28;20460;-74
2021/01/28 16:04:17;;;;;;;;;;;8.30;99.90;;;;;;5089432;28;20412;-73
2021/01/28 16:07:22;;;;;;;;;;;8.30;99.90;;;;;;5093242;28;19918;-74
2021/01/28 16:10:26;;;;;;;;;;;8.20;99.90;;;;;;5082890;28;19924;-73
2021/01/28 16:13:30;;;;;;;;;;;8.10;99.90;;;;;;5090316;28;19919;-73
2021/01/28 16:16:34;;;;;;;;;;;8.00;99.90;;;;;;5093287;28;19920;-73
2021/01/28 16:19:38;;;;;;;;;;;8.00;99.90;;;;;;5089180;28;19919;-73
2021/01/28 16:22:42;;;;;;;;;;;8.00;99.90;;;;;;5095324;28;19919;-73
2021/01/28 16:25:47;;;;;;;;;;;8.00;99.90;;;;;;5093303;28;20398;-73
2021/01/28 16:28:51;;;;;;;;;;;8.10;99.90;;;;;;5094213;28;19919;-72
2021/01/28 16:31:58;;;;;;;;;;;8.10;99.90;;;;;;5093211;28;19923;-73
2021/01/28 16:35:03;;;;;;;;;;;8.10;99.90;;;;;;5091937;28;19923;-73
2021/01/28 16:38:07;;;;;;;;;;;8.10;99.90;;;;;;5083362;28;19919;-72
2021/01/28 16:41:11;;;;;;;;;;;8.00;99.90;;;;;;5091519;28;19920;-72
2021/01/28 16:44:15;;;;;;;;;;;8.00;99.90;;;;;;5088679;28;19924;-72
2021/01/28 16:47:19;;;;;;;;;;;8.10;99.90;;;;;;5088516;28;19923;-72
2021/01/28 16:50:23;;;;;;;;;;;8.10;99.90;;;;;;5092187;28;20287;-72
2021/01/28 16:53:27;;;;;;;;;;;8.10;99.90;;;;;;5092408;28;19923;-71
2021/01/28 16:56:31;;;;;;;;;;;8.20;99.90;;;;;;5080143;28;19919;-71
2021/01/28 16:59:35;;;;;;;;;;;8.20;99.90;;;;;;5090234;28;19923;-72
2021/01/28 17:02:41;;;;;;;;;;;8.10;99.90;;;;;;5083925;28;19919;-73
2021/01/28 17:05:46;;;;;;;;;;;8.00;99.90;;;;;;5087948;28;19919;-73
2021/01/28 17:08:51;;;;;;;;;;;8.10;99.90;;;;;;5089704;28;19923;-72
2021/01/28 17:11:59;;;;;;;;;;;8.20;99.90;;;;;;5089761;28;19927;-72
2021/01/28 17:15:03;;;;;;;;;;;8.20;99.90;;;;;;5089798;28;20274;-71
2021/01/28 17:18:07;;;;;;;;;;;8.20;99.90;;;;;;5093029;28;20378;-71
2021/01/28 17:21:12;;;;;;;;;;;8.20;99.90;;;;;;5091853;28;20291;-71
2021/01/28 17:24:18;;;;;;;;;;;8.20;99.90;;;;;;5092964;28;19919;-72
2021/01/28 17:27:22;;;;;;;;;;;8.20;99.90;;;;;;5100881;28;19923;-72
2021/01/28 17:30:27;;;;;;;;;;;8.20;99.90;;;;;;5091919;28;19979;-72
2021/01/28 17:33:31;;;;;;;;;;;8.20;99.90;;;;;;5096259;28;19935;-71
2021/01/28 17:36:37;;;;;;;;;;;8.20;99.90;;;;;;5095688;28;20274;-72
2021/01/28 17:39:42;;;;;;;;;;;8.20;99.90;;;;;;5094069;28;19919;-71
2021/01/28 17:42:47;;;;;;;;;;;8.20;99.90;;;;;;5091317;28;20259;-72
2021/01/28 17:45:51;;;;;;;;;;;8.20;99.90;;;;;;5096921;28;19927;-71
2021/01/28 17:48:57;;;;;;;;;;;8.20;99.90;;;;;;5091873;28;19919;-73
2021/01/28 17:52:03;;;;;;;;;;;8.30;99.90;;;;;;5091077;28;20444;-72
2021/01/28 17:55:07;;;;;;;;;;;8.30;99.90;;;;;;5090378;28;19926;-72
2021/01/28 17:58:12;;;;;;;;;;;8.30;99.90;;;;;;5089907;28;19919;-72
2021/01/28 18:01:16;;;;;;;;;;;8.40;99.90;;;;;;5092495;28;19919;-72
2021/01/28 18:04:21;;;;;;;;;;;8.40;99.90;;;;;;5092585;28;19923;-72
2021/01/28 18:07:25;;;;;;;;;;;8.40;99.90;;;;;;5085156;28;20287;-72
2021/01/28 18:10:30;;;;;;;;;;;8.40;99.90;;;;;;5087615;28;20259;-72
2021/01/28 18:13:35;;;;;;;;;;;8.40;99.90;;;;;;5089701;28;19927;-72
2021/01/28 18:16:39;;;;;;;;;;;8.40;99.90;;;;;;5087749;28;19923;-72
2021/01/28 18:19:43;;;;;;;;;;;8.50;99.90;;;;;;5088213;28;19923;-73
2021/01/28 18:22:48;;;;;;;;;;;8.50;99.90;;;;;;5087678;28;19919;-72
2021/01/28 18:25:51;;;;;;;;;;;8.50;99.90;;;;;;5089919;28;19923;-72
2021/01/28 18:28:55;;;;;;;;;;;8.60;99.90;;;;;;5087788;28;19919;-73
2021/01/28 18:31:59;;;;;;;;;;;8.50;99.90;;;;;;5088362;28;19939;-73
2021/01/28 18:35:05;;;;;;;;;;;8.50;99.90;;;;;;5089580;28;19923;-73
2021/01/28 18:38:09;;;;;;;;;;;8.40;99.90;;;;;;5089894;28;20334;-72
2021/01/28 18:41:13;;;;;;;;;;;8.40;99.90;;;;;;5086901;28;19919;-73
2021/01/28 18:44:17;;;;;;;;;;;8.50;99.90;;;;;;5090923;28;19923;-72